Nearby METAR Reports

 

KCRG - Jacksonvil/Craig, Florida, USA
Distance from station: S 4mi, 6km
Updated: Wed, 12-May-2021 6:53pm EDT
Clear
Clear
 Wind from N
Wind: N 12 mph , 19 km/h
Temperature: 75°F , 24°C
Dew Point: 66°F , 19°C
Humidity: 74%
Barometer: 30.02 inHg , 1016.6 hPa
Clouds: Clear
Visibility: 10 miles , 16 km
2021/05/12 22:53 KCRG 122253Z 01010KT 10SM CLR 24/19 A3002 RMK AO2 SLP166 T02440189
KNRB - Mayport Nas, Florida, USA
Distance from station: E 6mi, 10km
Updated: Wed, 12-May-2021 6:52pm EDT
Overcast
Overcast
 Wind from NNE
Wind: NNE 8 mph , 13 km/h
Temperature: 73°F , 23°C
Dew Point: 68°F , 20°C
Humidity: 83%
Barometer: 30.02 inHg , 1016.6 hPa
Clouds: Overcast
Visibility: 10 miles , 16 km
Cloud details: Few Clouds 3000 ft
Mostly cloudy 10000 ft
Overcast 25000 ft
2021/05/12 22:52 KNRB 122252Z 02007KT 10SM FEW030 BKN100 OVC250 23/20 A3002 RMK AO2 SLP165 T2 SET T02280200 $
 
KJAX - Jacksonville, Florida, USA
Distance from station: NW 13mi, 20km
Updated: Wed, 12-May-2021 6:56pm EDT
Mostly cloudy
Mostly cloudy
 Wind from N
Wind: N 8 mph , 13 km/h
Temperature: 72°F , 22°C
Dew Point: 66°F , 19°C
Humidity: 83%
Barometer: 30.02 inHg , 1016.6 hPa
Clouds: Mostly cloudy
Visibility: 10 miles , 16 km
Cloud details: Few Clouds 3300 ft
Mostly cloudy 14000 ft
Mostly cloudy 25000 ft
2021/05/12 22:56 KJAX 122256Z 35007KT 10SM FEW033 BKN140 BKN250 22/19 A3002 RMK AO2 SLP166 T02220189
KNIP - Jacksonville Nas, Florida, USA
Distance from station: SW 15mi, 24km
Updated: Wed, 12-May-2021 6:53pm EDT
Overcast
Overcast
 Wind from N
Wind: N 13 mph , 20 km/h
Temperature: 75°F , 24°C
Dew Point: 66°F , 19°C
Humidity: 74%
Barometer: 30.03 inHg , 1016.9 hPa
Clouds: Overcast
Visibility: 10 miles , 16 km
Cloud details: Partly cloudy 3500 ft
Mostly cloudy 8000 ft
Mostly cloudy 12000 ft
Overcast 25000 ft
2021/05/12 22:53 KNIP 122253Z 35011KT 10SM SCT035 BKN080 BKN120 OVC250 24/19 A3003 RMK AO2 SLP163 T02440189
 
KFHB - Fernandina Beach, Florida, USA
Distance from station: N 16mi, 26km
Updated: Wed, 12-May-2021 7:15pm EDT
Partly cloudy
Partly cloudy
 Wind from N
Wind: N 9 mph , 15 km/h
Temperature: 72°F , 22°C
Barometer: 30.03 inHg , 1016.9 hPa
Clouds: Partly cloudy
Visibility: 10 miles , 16 km
Cloud details: Partly cloudy 900 ft
2021/05/12 23:15 KFHB 122315Z AUTO 35008KT 10SM SCT009 22/ A3003 RMK AO2 T0222////
KVQQ - Jacksonvil/Cecil, Florida, USA
Distance from station: WSW 25mi, 40km
Updated: Wed, 12-May-2021 6:50pm EDT
Clear
Clear
 Wind from N
Wind: N 8 mph , 13 km/h
Temperature: 75°F , 24°C
Dew Point: 66°F , 19°C
Humidity: 74%
Barometer: 30.02 inHg , 1016.6 hPa
Clouds: Clear
Visibility: 10 miles , 16 km
2021/05/12 22:50 KVQQ 122250Z 35007KT 10SM CLR 24/19 A3002
 
KSGJ - St Augustine, Florida, USA
Distance from station: SSE 31mi, 51km
Updated: Wed, 12-May-2021 6:56pm EDT
Clear
Clear
 Wind from N
Wind: N 15 mph , 24 km/h, Gust: 22 mph , 35 km/h
Temperature: 73°F , 23°C
Dew Point: 68°F , 20°C
Humidity: 83%
Barometer: 30.04 inHg , 1017.3 hPa
Clouds: Clear
Visibility: 10 miles , 16 km
2021/05/12 22:56 KSGJ 122256Z 36013G19KT 10SM CLR 23/20 A3004 RMK AO2 SLP171 T02330200 $
K42J - Keystone Heights, Florida, USA
Distance from station: SW 49mi, 79km
Updated: Wed, 12-May-2021 7:15pm EDT
Clear
Clear
 Wind from NNW
Wind: NNW 7 mph , 11 km/h
Temperature: 77°F , 25°C
Dew Point: 66°F , 19°C
Humidity: 69%
Barometer: 30.02 inHg , 1016.6 hPa
Clouds: Clear
Visibility: 10 miles , 16 km
2021/05/12 23:15 K42J 122315Z AUTO 33006KT 10SM CLR 25/19 A3002 RMK A01 TSNO